sensor_id;sensor_type;location;lat;lon;timestamp;pressure;altitude;pressure_sealevel;temperature;humidity
79316;BME280;68779;50.036;19.964;2023-04-25T00:09:02;100419.81;;;14.26;71.44
79316;BME280;68779;50.036;19.964;2023-04-25T00:39:17;100455.02;;;13.74;70.86
79316;BME280;68779;50.036;19.964;2023-04-25T02:10:25;100478.45;;;13.20;72.45
79316;BME280;68779;50.036;19.964;2023-04-25T02:40:39;100487.87;;;13.18;72.37
79316;BME280;68779;50.036;19.964;2023-04-25T03:10:53;100472.84;;;13.30;71.30
79316;BME280;68779;50.036;19.964;2023-04-25T03:41:08;100498.03;;;12.92;73.03
79316;BME280;68779;50.036;19.964;2023-04-25T04:11:22;100526.97;;;12.69;72.57
79316;BME280;68779;50.036;19.964;2023-04-25T04:41:36;100563.27;;;12.27;72.43
79316;BME280;68779;50.036;19.964;2023-04-25T05:11:51;100577.10;;;12.34;72.03
79316;BME280;68779;50.036;19.964;2023-04-25T05:42:13;100607.17;;;12.16;68.60
79316;BME280;68779;50.036;19.964;2023-04-25T06:12:29;100650.09;;;11.61;69.64
79316;BME280;68779;50.036;19.964;2023-04-25T06:42:43;100662.85;;;12.14;69.12
79316;BME280;68779;50.036;19.964;2023-04-25T07:12:56;100657.99;;;12.25;67.19
79316;BME280;68779;50.036;19.964;2023-04-25T07:43:10;100655.27;;;12.85;64.15
79316;BME280;68779;50.036;19.964;2023-04-25T08:13:29;100651.73;;;13.34;62.94
79316;BME280;68779;50.036;19.964;2023-04-25T08:43:43;100658.15;;;13.17;63.40
79316;BME280;68779;50.036;19.964;2023-04-25T09:44:26;100686.62;;;13.06;62.17
79316;BME280;68779;50.036;19.964;2023-04-25T10:14:40;100687.68;;;13.21;60.09
79316;BME280;68779;50.036;19.964;2023-04-25T10:45:01;100665.46;;;14.15;56.68
79316;BME280;68779;50.036;19.964;2023-04-25T11:15:18;100639.48;;;14.90;55.22
79316;BME280;68779;50.036;19.964;2023-04-25T11:45:32;100648.70;;;14.34;55.33
79316;BME280;68779;50.036;19.964;2023-04-25T12:15:46;100649.57;;;13.94;56.18
79316;BME280;68779;50.036;19.964;2023-04-25T12:46:02;100659.45;;;13.63;54.93
79316;BME280;68779;50.036;19.964;2023-04-25T13:16:16;100662.15;;;13.47;55.06
79316;BME280;68779;50.036;19.964;2023-04-25T13:46:30;100658.10;;;14.39;57.37
79316;BME280;68779;50.036;19.964;2023-04-25T14:16:45;100656.20;;;14.56;53.98
79316;BME280;68779;50.036;19.964;2023-04-25T14:47:07;100676.04;;;14.01;50.98
79316;BME280;68779;50.036;19.964;2023-04-25T15:17:21;100680.15;;;13.97;50.03
79316;BME280;68779;50.036;19.964;2023-04-25T15:47:38;100675.38;;;14.40;49.48
79316;BME280;68779;50.036;19.964;2023-04-25T16:17:51;100668.34;;;14.53;48.02
79316;BME280;68779;50.036;19.964;2023-04-25T16:48:05;100693.47;;;14.25;49.39
79316;BME280;68779;50.036;19.964;2023-04-25T17:18:19;100710.86;;;13.67;52.62
79316;BME280;68779;50.036;19.964;2023-04-25T17:48:33;100734.58;;;12.83;53.78
79316;BME280;68779;50.036;19.964;2023-04-25T18:18:49;100771.16;;;11.76;58.71
79316;BME280;68779;50.036;19.964;2023-04-25T18:49:08;100805.79;;;11.57;59.32
79316;BME280;68779;50.036;19.964;2023-04-25T19:19:23;100844.43;;;10.96;60.83
79316;BME280;68779;50.036;19.964;2023-04-25T20:06:51;100873.98;;;10.72;60.81
79316;BME280;68779;50.036;19.964;2023-04-25T20:37:07;100889.98;;;10.18;63.00
79316;BME280;68779;50.036;19.964;2023-04-25T21:07:24;100899.90;;;10.47;58.89
79316;BME280;68779;50.036;19.964;2023-04-25T21:37:41;100930.08;;;10.44;58.82
79316;BME280;68779;50.036;19.964;2023-04-25T22:07:57;100950.84;;;10.65;58.12
79316;BME280;68779;50.036;19.964;2023-04-25T22:38:13;100973.16;;;10.78;58.20
79316;BME280;68779;50.036;19.964;2023-04-25T23:08:29;100982.44;;;10.46;60.06
79316;BME280;68779;50.036;19.964;2023-04-25T23:38:47;101001.20;;;10.69;59.39
